createdAt,value
2022-10-11T00:00:13.422Z,78.56
2022-10-11T00:02:40.744Z,78.93
2022-10-11T00:05:08.427Z,79.37
2022-10-11T00:07:37.120Z,79.60
2022-10-11T00:10:05.687Z,79.16
2022-10-11T00:12:32.963Z,79.57
2022-10-11T00:15:00.164Z,79.86
2022-10-11T00:17:27.977Z,80.38
2022-10-11T00:19:55.184Z,79.57
2022-10-11T00:22:22.390Z,79.72
2022-10-11T00:24:49.554Z,80.03
2022-10-11T00:27:16.730Z,79.85
2022-10-11T00:29:43.914Z,79.42
2022-10-11T00:32:11.462Z,80.26
2022-10-11T00:34:38.626Z,80.39
2022-10-11T00:37:05.845Z,80.57
2022-10-11T00:39:33.233Z,80.30
2022-10-11T00:42:00.592Z,80.47
2022-10-11T00:44:28.972Z,81.32
2022-10-11T00:47:03.751Z,80.85
2022-10-11T00:49:40.968Z,81.23
2022-10-11T00:52:35.153Z,81.83
2022-10-11T00:55:12.030Z,81.86
2022-10-11T00:57:41.781Z,81.67
2022-10-11T01:00:12.736Z,81.69
2022-10-11T01:02:40.997Z,82.48
2022-10-11T01:05:28.221Z,83.10
2022-10-11T01:07:56.557Z,84.28
2022-10-11T01:10:23.939Z,83.38
2022-10-11T01:13:17.875Z,83.92
2022-10-11T01:15:50.571Z,83.41
2022-10-11T01:19:12.387Z,84.25
2022-10-11T01:21:53.341Z,84.46
2022-10-11T01:24:39.050Z,84.05
2022-10-11T01:27:27.178Z,84.00
2022-10-11T01:30:18.878Z,84.37
2022-10-11T01:32:59.962Z,84.49
2022-10-11T01:35:49.723Z,84.19
2022-10-11T01:38:27.943Z,84.44
2022-10-11T01:41:09.518Z,85.23
2022-10-11T01:43:37.537Z,86.56
2022-10-11T01:46:07.402Z,86.98
2022-10-11T01:48:46.923Z,86.80
2022-10-11T01:51:14.107Z,86.90
2022-10-11T01:54:09.921Z,87.37
2022-10-11T01:56:51.969Z,88.16
2022-10-11T01:59:32.001Z,88.58
2022-10-11T02:02:14.460Z,88.90
2022-10-11T02:04:52.278Z,88.82
2022-10-11T02:07:40.554Z,89.17
2022-10-11T02:10:17.133Z,89.51
2022-10-11T02:12:49.219Z,89.85
2022-10-11T02:15:18.205Z,90.05
2022-10-11T02:17:55.631Z,89.45
2022-10-11T02:20:25.732Z,89.88
2022-10-11T02:22:59.228Z,90.63
2022-10-11T02:25:28.550Z,90.48
2022-10-11T02:27:57.027Z,91.32
2022-10-11T02:30:24.221Z,91.14
2022-10-11T02:32:52.397Z,91.48
2022-10-11T02:35:19.735Z,91.35
2022-10-11T02:38:24.242Z,91.51
2022-10-11T02:40:58.684Z,92.03
2022-10-11T02:43:31.661Z,92.28
2022-10-11T02:46:00.705Z,92.55
2022-10-11T02:48:29.309Z,92.50
2022-10-11T02:50:57.498Z,93.13
2022-10-11T02:53:25.513Z,93.71
2022-10-11T02:55:54.375Z,93.55
2022-10-11T02:58:22.590Z,93.73
2022-10-11T03:00:49.865Z,94.44
2022-10-11T03:03:17.129Z,94.63
2022-10-11T03:05:44.324Z,94.93
2022-10-11T03:08:13.696Z,95.47
2022-10-11T03:10:40.959Z,95.69
2022-10-11T03:13:08.381Z,95.92
2022-10-11T03:15:35.624Z,95.77
2022-10-11T03:18:02.804Z,96.19
2022-10-11T03:20:29.976Z,95.79
2022-10-11T03:22:57.186Z,95.79
2022-10-11T03:25:24.377Z,96.36
2022-10-11T03:27:51.566Z,96.47
2022-10-11T03:30:20.071Z,96.83
2022-10-11T03:32:47.257Z,96.74
2022-10-11T03:35:14.579Z,96.83
2022-10-11T03:37:41.750Z,97.13
2022-10-11T03:40:10.864Z,97.58
2022-10-11T03:42:38.410Z,97.10
2022-10-11T03:45:08.220Z,97.53
2022-10-11T03:47:36.901Z,97.25
2022-10-11T03:50:05.800Z,97.72
2022-10-11T03:52:32.983Z,97.71
2022-10-11T03:55:00.158Z,97.99
2022-10-11T03:57:27.564Z,97.92
2022-10-11T03:59:54.731Z,97.86
2022-10-11T04:02:22.069Z,97.85
2022-10-11T04:04:49.242Z,98.03
2022-10-11T04:07:16.495Z,98.09
2022-10-11T04:09:43.692Z,98.08
2022-10-11T04:12:10.909Z,98.29
2022-10-11T04:14:38.280Z,98.14
2022-10-11T04:17:05.452Z,98.02
2022-10-11T04:19:32.703Z,98.10
2022-10-11T04:21:59.983Z,98.94
2022-10-11T04:24:27.185Z,99.62
2022-10-11T04:26:54.356Z,99.58
2022-10-11T04:29:21.576Z,99.54
2022-10-11T04:31:48.949Z,99.92
2022-10-11T04:34:16.448Z,100.00
2022-10-11T04:36:47.550Z,100.00
2022-10-11T04:39:16.872Z,99.94
2022-10-11T04:41:44.273Z,99.83
2022-10-11T04:44:11.451Z,99.96
2022-10-11T04:46:38.626Z,99.88
2022-10-11T04:49:06.199Z,100.00
2022-10-11T04:51:33.856Z,100.00
2022-10-11T04:54:01.158Z,100.00
2022-10-11T04:56:30.530Z,100.00
2022-10-11T04:58:57.731Z,100.00
2022-10-11T05:01:25.178Z,100.00
2022-10-11T05:03:52.695Z,100.00
2022-10-11T05:06:19.884Z,100.00
2022-10-11T05:08:47.238Z,100.00
2022-10-11T05:11:16.306Z,100.00
2022-10-11T05:13:44.444Z,100.00
2022-10-11T05:16:12.734Z,100.00
2022-10-11T05:18:40.512Z,100.00
2022-10-11T05:21:16.330Z,100.00
2022-10-11T05:23:43.526Z,100.00
2022-10-11T05:26:10.966Z,100.00
2022-10-11T05:28:38.305Z,100.00
2022-10-11T05:31:05.709Z,100.00
2022-10-11T05:33:33.861Z,100.00
2022-10-11T05:36:01.071Z,100.00
2022-10-11T05:38:28.299Z,100.00
2022-10-11T05:40:58.440Z,100.00
2022-10-11T05:43:25.667Z,100.00
2022-10-11T05:45:52.837Z,100.00
2022-10-11T05:48:20.192Z,100.00
2022-10-11T05:50:47.654Z,100.00
2022-10-11T05:53:14.865Z,100.00
2022-10-11T05:55:43.175Z,100.00
2022-10-11T05:58:14.723Z,100.00
2022-10-11T06:00:41.956Z,100.00
2022-10-11T06:03:11.413Z,100.00
2022-10-11T06:05:38.725Z,100.00
2022-10-11T06:08:08.515Z,100.00
2022-10-11T06:10:36.513Z,100.00
2022-10-11T06:13:03.828Z,100.00
2022-10-11T06:15:31.074Z,100.00
2022-10-11T06:17:59.544Z,100.00
2022-10-11T06:20:27.077Z,100.00
2022-10-11T06:22:54.361Z,100.00
2022-10-11T06:25:21.587Z,100.00
2022-10-11T06:27:48.784Z,100.00
2022-10-11T06:30:16.120Z,100.00
2022-10-11T06:32:43.333Z,100.00
2022-10-11T06:35:10.567Z,100.00
2022-10-11T06:37:37.735Z,100.00
2022-10-11T06:40:05.303Z,100.00
2022-10-11T06:42:32.551Z,100.00
2022-10-11T06:45:00.947Z,99.82
2022-10-11T06:47:28.121Z,100.00
2022-10-11T06:49:55.294Z,100.00
2022-10-11T06:52:22.449Z,100.00
2022-10-11T06:54:49.621Z,100.00
2022-10-11T06:57:16.862Z,99.19
2022-10-11T06:59:44.016Z,98.59
2022-10-11T07:02:11.232Z,98.42
2022-10-11T07:04:39.315Z,97.03
2022-10-11T07:07:07.753Z,96.29
2022-10-11T07:09:35.167Z,95.61
2022-10-11T07:12:02.387Z,94.96
2022-10-11T07:14:29.579Z,94.49
2022-10-11T07:16:57.554Z,93.51
2022-10-11T07:19:24.815Z,92.61
2022-10-11T07:21:52.055Z,91.37
2022-10-11T07:24:19.315Z,90.99
2022-10-11T07:26:46.462Z,90.91
2022-10-11T07:29:13.703Z,89.03
2022-10-11T07:31:42.514Z,89.26
2022-10-11T07:34:10.475Z,87.75
2022-10-11T07:36:37.857Z,87.59
2022-10-11T07:39:07.003Z,86.24
2022-10-11T07:41:34.643Z,85.37
2022-10-11T07:44:03.231Z,85.30
2022-10-11T07:46:31.268Z,84.59
2022-10-11T07:48:58.566Z,83.85
2022-10-11T07:51:26.510Z,84.18
2022-10-11T07:54:08.672Z,83.67
2022-10-11T07:56:36.635Z,83.05
2022-10-11T07:59:03.961Z,82.35
2022-10-11T08:01:32.107Z,82.44
2022-10-11T08:04:00.726Z,81.27
2022-10-11T08:06:31.683Z,81.52
2022-10-11T08:09:00.556Z,80.51
2022-10-11T08:11:34.135Z,81.15
2022-10-11T08:14:02.099Z,79.84
2022-10-11T08:16:29.594Z,80.55
2022-10-11T08:18:57.216Z,78.85
2022-10-11T08:21:26.903Z,79.17
2022-10-11T08:23:54.244Z,79.43
2022-10-11T08:26:21.825Z,79.36
2022-10-11T08:28:49.470Z,79.30
2022-10-11T08:31:18.910Z,79.21
2022-10-11T08:33:46.262Z,79.15
2022-10-11T08:36:13.612Z,76.68
2022-10-11T08:38:41.050Z,76.08
2022-10-11T08:41:32.026Z,75.84
2022-10-11T08:44:51.796Z,77.45
2022-10-11T08:47:41.257Z,75.79
2022-10-11T08:50:22.485Z,77.10
2022-10-11T08:52:55.721Z,74.63
2022-10-11T08:55:32.317Z,75.84
2022-10-11T08:57:59.827Z,74.15
2022-10-11T09:00:31.271Z,74.81
2022-10-11T09:03:14.296Z,71.67
2022-10-11T09:06:01.217Z,72.72
2022-10-11T09:08:53.597Z,71.57
2022-10-11T09:12:14.866Z,70.88
2022-10-11T09:14:57.115Z,70.51
2022-10-11T09:17:46.168Z,70.67
2022-10-11T09:20:30.390Z,71.49
2022-10-11T09:23:04.117Z,69.76
2022-10-11T09:25:55.096Z,71.67
2022-10-11T09:28:30.429Z,69.49
2022-10-11T09:30:58.846Z,70.42
2022-10-11T09:33:34.722Z,69.78
2022-10-11T09:36:04.568Z,67.92
2022-10-11T09:38:51.208Z,68.20
2022-10-11T09:41:29.263Z,68.05
2022-10-11T09:43:56.550Z,68.87
2022-10-11T09:46:37.984Z,67.67
2022-10-11T09:49:09.333Z,67.37
2022-10-11T09:51:37.466Z,69.82
2022-10-11T09:54:07.582Z,68.73
2022-10-11T09:56:41.800Z,66.11
2022-10-11T09:59:28.953Z,66.17
2022-10-11T10:02:14.544Z,67.50
2022-10-11T10:05:01.913Z,64.97
2022-10-11T10:07:31.338Z,66.30
2022-10-11T10:10:11.013Z,65.43
2022-10-11T10:12:47.471Z,64.56
2022-10-11T10:15:18.947Z,64.83
2022-10-11T10:17:53.871Z,66.47
2022-10-11T10:20:24.551Z,65.95
2022-10-11T10:22:52.541Z,63.13
2022-10-11T10:25:30.658Z,61.28
2022-10-11T10:28:00.226Z,60.42
2022-10-11T10:30:30.743Z,59.34
2022-10-11T10:33:12.366Z,60.39
2022-10-11T10:35:41.834Z,60.40
2022-10-11T10:38:20.717Z,59.95
2022-10-11T10:41:04.179Z,59.69
2022-10-11T10:43:36.580Z,59.42
2022-10-11T10:46:26.646Z,58.98
2022-10-11T10:49:53.612Z,57.29
2022-10-11T10:52:30.505Z,57.74
2022-10-11T10:55:15.849Z,58.53
2022-10-11T10:57:57.933Z,58.39
2022-10-11T11:00:25.436Z,61.05
2022-10-11T11:03:04.218Z,58.82
2022-10-11T11:05:48.451Z,58.84
2022-10-11T11:08:53.507Z,54.82
2022-10-11T11:11:44.247Z,58.23
2022-10-11T11:14:21.899Z,54.62
2022-10-11T11:17:13.103Z,56.48
2022-10-11T11:19:53.320Z,52.92
2022-10-11T11:22:32.879Z,55.80
2022-10-11T11:25:18.879Z,54.77
2022-10-11T11:28:09.126Z,52.51
2022-10-11T11:30:48.368Z,54.20
2022-10-11T11:33:48.689Z,53.71
2022-10-11T11:36:26.729Z,55.62
2022-10-11T11:39:01.954Z,51.79
2022-10-11T11:41:39.655Z,52.66
2022-10-11T11:44:16.321Z,53.65
2022-10-11T11:46:52.945Z,53.29
2022-10-11T11:49:41.861Z,51.47
2022-10-11T11:52:36.188Z,51.21
2022-10-11T11:55:17.741Z,53.04
2022-10-11T11:58:02.093Z,54.07
2022-10-11T12:00:40.012Z,55.52
2022-10-11T12:03:22.159Z,52.55
2022-10-11T12:06:14.587Z,52.68
2022-10-11T12:08:43.968Z,52.40
2022-10-11T12:11:35.235Z,52.53
2022-10-11T12:14:04.605Z,50.57
2022-10-11T12:16:31.770Z,50.85
2022-10-11T12:19:03.589Z,52.74
2022-10-11T12:21:39.312Z,51.61
2022-10-11T12:24:22.979Z,49.91
2022-10-11T12:26:55.439Z,50.34
2022-10-11T12:29:44.784Z,48.86
2022-10-11T12:32:35.042Z,50.07
2022-10-11T12:35:30.248Z,49.51
2022-10-11T12:38:22.831Z,48.60
2022-10-11T12:40:54.716Z,47.94
2022-10-11T12:43:48.220Z,48.95
2022-10-11T12:46:31.243Z,48.00
2022-10-11T12:49:38.684Z,48.92
2022-10-11T12:52:18.461Z,48.31
2022-10-11T12:55:24.774Z,48.79
2022-10-11T12:58:25.647Z,50.14
2022-10-11T13:01:04.656Z,49.98
2022-10-11T13:03:44.031Z,50.42
2022-10-11T13:06:25.153Z,51.33
2022-10-11T13:09:05.642Z,52.66
2022-10-11T13:11:39.366Z,53.35
2022-10-11T13:14:46.481Z,53.05
2022-10-11T13:17:48.784Z,53.63
2022-10-11T13:20:24.040Z,54.01
2022-10-11T13:22:53.762Z,54.06
2022-10-11T13:25:24.663Z,54.32
2022-10-11T13:31:13.684Z,54.66
2022-10-11T13:33:45.945Z,54.71
2022-10-11T13:36:21.900Z,55.73
2022-10-11T13:38:57.966Z,54.55
2022-10-11T13:41:30.957Z,56.16
2022-10-11T13:44:00.462Z,54.76
2022-10-11T13:46:28.834Z,54.78
2022-10-11T13:49:04.531Z,54.88
2022-10-11T13:51:38.421Z,53.96
2022-10-11T13:54:13.599Z,54.30
2022-10-11T14:00:26.934Z,55.37
2022-10-11T14:03:15.110Z,54.50
2022-10-11T14:05:57.047Z,54.06
2022-10-11T14:08:47.280Z,54.49
2022-10-11T14:11:37.364Z,53.76
2022-10-11T14:18:41.940Z,54.22
2022-10-11T14:24:57.176Z,54.14
2022-10-11T14:27:28.368Z,54.30
2022-10-11T14:30:23.965Z,53.19
2022-10-11T14:33:00.373Z,53.73
2022-10-11T14:35:30.533Z,53.50
2022-10-11T14:37:57.857Z,52.41
2022-10-11T14:40:29.895Z,53.03
2022-10-11T14:42:57.381Z,54.08
2022-10-11T14:48:12.745Z,54.41
2022-10-11T14:50:48.050Z,54.56
2022-10-11T14:53:18.133Z,54.37
2022-10-11T14:56:20.392Z,54.19
2022-10-11T14:58:48.762Z,53.97
2022-10-11T15:01:17.297Z,53.74
2022-10-11T15:03:51.827Z,55.18
2022-10-11T15:06:32.122Z,54.21
2022-10-11T15:09:00.159Z,54.80
2022-10-11T15:11:27.448Z,55.21
2022-10-11T15:13:54.785Z,55.19
2022-10-11T15:16:24.026Z,55.18
2022-10-11T15:18:52.026Z,55.17
2022-10-11T15:21:25.170Z,55.54
2022-10-11T15:23:53.313Z,56.07
2022-10-11T15:26:24.000Z,55.47
2022-10-11T15:28:51.983Z,55.77
2022-10-11T15:31:21.553Z,55.99
2022-10-11T15:33:52.538Z,56.07
2022-10-11T15:36:22.327Z,56.08
2022-10-11T15:38:50.409Z,56.70
2022-10-11T15:41:19.904Z,57.23
2022-10-11T15:43:49.461Z,57.97
2022-10-11T15:46:26.032Z,57.79
2022-10-11T15:48:54.891Z,58.19
2022-10-11T15:51:34.957Z,58.88
2022-10-11T15:54:02.593Z,58.78
2022-10-11T15:56:33.694Z,59.33
2022-10-11T15:59:02.057Z,59.54
2022-10-11T16:01:29.447Z,59.94
2022-10-11T16:04:16.474Z,60.50
2022-10-11T16:06:46.429Z,60.67
2022-10-11T16:09:13.938Z,60.69
2022-10-11T16:11:41.319Z,60.70
2022-10-11T16:14:09.169Z,61.58
2022-10-11T16:16:38.020Z,61.67
2022-10-11T16:19:05.247Z,61.86
2022-10-11T16:21:32.976Z,61.86
2022-10-11T16:24:00.296Z,62.50
2022-10-11T16:26:44.781Z,62.53
2022-10-11T16:29:50.240Z,62.78
2022-10-11T16:32:17.476Z,63.47
2022-10-11T16:34:44.891Z,63.66
2022-10-11T16:37:13.008Z,63.90
2022-10-11T16:39:40.849Z,64.95
2022-10-11T16:42:08.114Z,65.59
2022-10-11T16:44:37.922Z,66.06
2022-10-11T16:47:06.006Z,66.41
2022-10-11T16:49:33.373Z,67.18
2022-10-11T16:52:02.655Z,67.82
2022-10-11T16:54:32.935Z,68.73
2022-10-11T16:57:00.758Z,69.55
2022-10-11T16:59:28.578Z,69.89
2022-10-11T17:01:59.271Z,70.09
2022-10-11T17:04:26.562Z,70.59
2022-10-11T17:06:55.100Z,71.75
2022-10-11T17:09:22.342Z,72.21
2022-10-11T17:11:49.611Z,72.49
2022-10-11T17:14:17.075Z,72.00
2022-10-11T17:16:44.929Z,72.80
2022-10-11T17:19:14.783Z,73.33
2022-10-11T17:21:44.315Z,74.10
2022-10-11T17:24:12.258Z,74.21
2022-10-11T17:26:41.956Z,73.29
2022-10-11T17:29:14.705Z,73.03
2022-10-11T17:31:48.078Z,73.86
2022-10-11T17:34:16.957Z,73.67
2022-10-11T17:36:44.243Z,74.12
2022-10-11T17:39:17.746Z,74.06
2022-10-11T17:41:45.384Z,74.88
2022-10-11T17:44:13.497Z,74.99
2022-10-11T17:46:46.052Z,76.21
2022-10-11T17:49:13.617Z,76.78
2022-10-11T17:51:42.018Z,77.45
2022-10-11T17:54:13.257Z,77.94
2022-10-11T17:56:41.827Z,78.55
2022-10-11T17:59:15.009Z,77.96
2022-10-11T18:01:42.389Z,78.55
2022-10-11T18:04:16.463Z,79.29
2022-10-11T18:06:46.679Z,79.70
2022-10-11T18:09:16.611Z,79.77
2022-10-11T18:11:44.204Z,79.95
2022-10-11T18:14:11.466Z,79.49
2022-10-11T18:16:40.740Z,80.22
2022-10-11T18:19:11.604Z,79.95
2022-10-11T18:21:39.129Z,80.17
2022-10-11T18:24:13.151Z,80.83
2022-10-11T18:26:40.672Z,80.29
2022-10-11T18:29:08.256Z,80.48
2022-10-11T18:31:36.755Z,80.32
2022-10-11T18:34:10.909Z,80.26
2022-10-11T18:36:38.926Z,79.95
2022-10-11T18:39:08.180Z,81.39
2022-10-11T18:41:35.652Z,82.15
2022-10-11T18:44:05.665Z,82.36
2022-10-11T18:46:33.519Z,83.24
2022-10-11T18:49:02.058Z,83.72
2022-10-11T18:51:31.822Z,83.99
2022-10-11T18:53:59.641Z,83.97
2022-10-11T18:56:28.831Z,84.72
2022-10-11T18:58:57.229Z,84.65
2022-10-11T19:01:28.186Z,84.21
2022-10-11T19:03:57.367Z,84.34
2022-10-11T19:06:37.737Z,84.60
2022-10-11T19:09:13.192Z,84.88
2022-10-11T19:11:41.055Z,84.43
2022-10-11T19:14:11.514Z,85.02
2022-10-11T19:16:40.944Z,85.21
2022-10-11T19:19:09.941Z,84.94
2022-10-11T19:21:37.829Z,85.29
2022-10-11T19:24:06.595Z,85.99
2022-10-11T19:26:38.915Z,86.39
2022-10-11T19:29:20.796Z,86.61
2022-10-11T19:31:53.934Z,86.91
2022-10-11T19:34:22.498Z,86.76
2022-10-11T19:36:52.793Z,86.91
2022-10-11T19:39:21.726Z,86.84
2022-10-11T19:41:49.360Z,86.83
2022-10-11T19:44:17.099Z,86.70
2022-10-11T19:46:51.516Z,86.70
2022-10-11T19:49:22.417Z,86.95
2022-10-11T19:51:49.612Z,87.58
2022-10-11T19:54:16.855Z,87.72
2022-10-11T19:56:44.637Z,87.92
2022-10-11T19:59:14.728Z,87.74
2022-10-11T20:01:43.276Z,88.06
2022-10-11T20:04:33.074Z,87.97
2022-10-11T20:07:00.151Z,88.13
2022-10-11T20:09:30.194Z,87.80
2022-10-11T20:11:58.043Z,87.06
2022-10-11T20:14:25.312Z,87.07
2022-10-11T20:16:52.543Z,87.07
2022-10-11T20:19:22.055Z,86.58
2022-10-11T20:21:52.139Z,86.36
2022-10-11T20:24:23.022Z,86.19
2022-10-11T20:26:50.352Z,86.96
2022-10-11T20:29:18.419Z,86.78
2022-10-11T20:31:45.851Z,87.05
2022-10-11T20:34:13.488Z,87.60
2022-10-11T20:36:40.933Z,87.73
2022-10-11T20:39:10.915Z,87.97
2022-10-11T20:41:44.703Z,88.45
2022-10-11T20:44:13.336Z,89.44
2022-10-11T20:46:45.180Z,90.23
2022-10-11T20:49:13.555Z,90.27
2022-10-11T20:51:41.948Z,89.58
2022-10-11T20:54:09.796Z,89.72
2022-10-11T20:56:37.658Z,88.79
2022-10-11T20:59:06.248Z,87.98
2022-10-11T21:01:39.900Z,87.70
2022-10-11T21:04:08.537Z,87.75
2022-10-11T21:06:35.802Z,87.85
2022-10-11T21:09:03.171Z,88.88
2022-10-11T21:11:33.508Z,89.50
2022-10-11T21:14:06.505Z,89.65
2022-10-11T21:16:34.459Z,89.02
2022-10-11T21:19:02.260Z,89.54
2022-10-11T21:21:30.543Z,89.75
2022-10-11T21:24:00.112Z,88.97
2022-10-11T21:26:28.373Z,89.63
2022-10-11T21:28:57.073Z,89.91
2022-10-11T21:31:24.434Z,89.70
2022-10-11T21:33:51.878Z,90.18
2022-10-11T21:36:21.006Z,90.49
2022-10-11T21:38:49.316Z,90.03
2022-10-11T21:41:21.813Z,90.39
2022-10-11T21:43:49.508Z,90.94
2022-10-11T21:46:19.319Z,90.61
2022-10-11T21:48:47.962Z,90.85
2022-10-11T21:51:17.676Z,90.61
2022-10-11T21:53:44.886Z,90.37
2022-10-11T21:56:12.139Z,90.44
2022-10-11T21:58:39.394Z,90.91
2022-10-11T22:01:06.943Z,89.65
2022-10-11T22:03:34.355Z,90.45
2022-10-11T22:06:05.254Z,90.04
2022-10-11T22:08:32.537Z,88.87
2022-10-11T22:11:01.701Z,88.68
2022-10-11T22:13:30.655Z,89.48
2022-10-11T22:15:57.948Z,88.87
2022-10-11T22:18:25.271Z,88.94
2022-10-11T22:20:52.748Z,89.64
2022-10-11T22:23:20.168Z,90.13
2022-10-11T22:25:47.353Z,90.07
2022-10-11T22:28:14.613Z,90.67
2022-10-11T22:30:41.959Z,90.95
2022-10-11T22:33:09.291Z,91.23
2022-10-11T22:35:37.794Z,91.21
2022-10-11T22:38:06.251Z,90.62
2022-10-11T22:40:33.757Z,90.64
2022-10-11T22:43:02.064Z,91.46
2022-10-11T22:45:29.531Z,90.57
2022-10-11T22:47:57.178Z,91.20
2022-10-11T22:50:24.402Z,91.33
2022-10-11T22:52:51.615Z,91.20
2022-10-11T22:55:20.307Z,90.80
2022-10-11T22:57:47.636Z,91.95
2022-10-11T23:00:15.731Z,91.48
2022-10-11T23:02:42.966Z,91.09
2022-10-11T23:05:10.313Z,91.61
2022-10-11T23:07:38.409Z,90.56
2022-10-11T23:10:06.264Z,91.21
2022-10-11T23:12:39.245Z,91.27
2022-10-11T23:15:07.049Z,91.35
2022-10-11T23:17:34.651Z,90.76
2022-10-11T23:20:02.088Z,90.62
2022-10-11T23:22:30.607Z,90.83
2022-10-11T23:24:58.393Z,90.95
2022-10-11T23:27:25.807Z,90.37
2022-10-11T23:29:53.319Z,90.25
2022-10-11T23:32:20.693Z,90.84
2022-10-11T23:34:48.307Z,90.18
2022-10-11T23:37:15.508Z,90.77
2022-10-11T23:39:42.750Z,90.93
2022-10-11T23:42:09.942Z,90.82
2022-10-11T23:44:37.103Z,90.38
2022-10-11T23:47:04.355Z,90.54
2022-10-11T23:49:31.559Z,91.20
2022-10-11T23:51:58.726Z,90.94
2022-10-11T23:54:26.257Z,90.35
2022-10-11T23:56:54.729Z,90.43
2022-10-11T23:59:21.908Z,90.80
